Airfield :
LOGIN :

Register | Disclaimer

   EN    FR    IT 

 










Legend :    VFR   Marginal VFR   IFR   Intensive IFR   Very Intensive IFR
Visi :
Ceiling :
>= 8 km
>= 3000ft
5 to 8 km
1000 to 3000 ft
1500m to 5 km
500 to 1000 ft
800 to 1500m
200 to 500 ft
< 800m
< 200 ft
Symbols :   Thunderstorms  Fog  Heavy snow  Heavy precipitations  Wind > 20 kt
SIGMETs :     Misc.  Thunderstorms  Icing  Turbulence  Mountain Waves  Volcanic Ashes







- Airport Elevation : 70 ft
- IATA code : LEI


LEAM - Almeria

CURRENT METAR :
  • 152230Z AUTO VRB02KT 9999 NCD 27/22 Q1015

EXPIRED METARs :
  • 152200Z AUTO 08003KT 9999 NCD 27/22 Q1015
  • 152130Z AUTO 35003KT 9999 NCD 27/22 Q1015
  • 152100Z AUTO 05005KT 020V100 9999 NCD 28/22 Q1015
  • 152030Z 09006KT 9999 FEW050 28/22 Q1015
  • 152000Z 10005KT 060V140 9999 FEW050 28/22 Q1015

TAF TAF LEAM
Valid from the 15 at 21:00 until the 16 at 21:00 UTC


152000Z 1521/1621 09005KT 9999 FEW050 TX31/1611Z TN23/1606Z
BECMG 1608/1610 22010KT
No reported NOTAMs for that airfield.
1 SIGMET reported for the Madrid FIR (LECM) :
 
Embedded thunderstorms
LECM SIGMET 6 VALID 152200/160000 LEVA
LECM MADRID FIR/UIR EMBD TS OBS AT 2156Z WI N3954 W00338 - N4108 W00245 - N4050 W00044 - N3823 W00126 - N3833 W00301 - N3954 W00338 TOP FL420 STNR NC=



MET'MAP, your aeronautical weather chart ! - Copyright ORBIFLY December 2007 - Disclaimer

ORBIFLY MET'MAP TEAM :

Programming & Development : Alexandra Zaïnal
Concept & Development : Baudouin d'Aumeries
Co-Development & Prog : Marc-Olivier Méhu
Technical & hardware support : Manuel Goepfert

Contact : metmap@orbifly.com




SOURCES & CREDITS :

   NOAA